Hosford, FL

8:03 AM EDT on May 26, 2015 (GMT -0400)
Panama City Tyndall AFB | | Change Station
CLOSE
Current Station
Airport
Location: Panama City Tyndall AFB,
Elevation: 16 ft
Nearby Weather Stations

Elev 16 ft 30.07 °N, 85.58 °W | Updated 5 minutes ago

Partly Cloudy
Partly Cloudy
78 °F
Feels Like 78 °F
N
6
Wind Variable Wind from ESE

Today
High -- | Low -- °F
--% Chance of Precip.
Yesterday
High -- | Low -- °F
Precip. -- in
6:40 AM 8:32 PM
First Quarter, 57% visible
Pressure 30.16 in
Visibility 10.0 miles
Clouds Clear
Dew Point 74 °F
Humidity 88%
Rainfall 0.00 in
Snow Depth Not available.
UV 1 out of 12
Pollen 5.10 out of 12
Air Quality Not available.
Flu Activity Sporadic
METAR KPAM 261158Z AUTO 12005KT 10SM CLR 25/23 A3015 RMK AO2 SLP213 T02540233 10254 20228 52016 $

More Conditions Fewer Conditions

Pressure 30.16 in
Visibility 10.0 miles
Clouds Clear
Dew Point 74 °F
Humidity 88%
Rainfall 0.00 in
Snow Depth Not available.
UV 1 out of 12
Pollen 5.10 out of 12
Air Quality Not available.
Flu Activity Sporadic
METAR KPAM 261158Z AUTO 12005KT 10SM CLR 25/23 A3015 RMK AO2 SLP213 T02540233 10254 20228 52016 $

More Conditions Fewer Conditions

10-Day Weather Forecast

Almanac

Astronomy

May. 26, 2015 Rise Set
Actual Time
Civil Twilight
Nautical Twilight
Astronomical Twilight
Moon
Length of Visible Light
Length of Day
Tomorrow will be .
, % of the Moon is Illuminated

Today's Extremes

State Highs State Lows

Community

WunderPhotos

Upload Photos

1,824,318 photos uploaded!

WunderBlogs® & News

Nearby

Air Quality

  Air Quality AQ Index Pollutant
Not available.

Snow Depth

Station Depth Elevation

Earthquake Activity

City Distance Mag. Time & Date
Minimum magnitude displayed is 2.5.

Coastal Water Temperatures

Place Temperature

Stations

Nearby Weather Stations

Station Location Temp. Windchill Dew Point Humidity Wind Precip. Elev Updated Type